sensor_id;sensor_type;location;lat;lon;timestamp;P1;durP1;ratioP1;P2;durP2;ratioP2
33593;SDS011;19920;52.242;20.940;2023-01-31T00:01:23;11.80;;;6.07;;
33593;SDS011;19920;52.242;20.940;2023-01-31T00:03:55;12.65;;;6.20;;
33593;SDS011;19920;52.242;20.940;2023-01-31T00:06:27;14.65;;;6.45;;
33593;SDS011;19920;52.242;20.940;2023-01-31T00:08:53;10.88;;;5.72;;
33593;SDS011;19920;52.242;20.940;2023-01-31T00:11:20;17.02;;;6.18;;
33593;SDS011;19920;52.242;20.940;2023-01-31T00:13:47;12.02;;;5.93;;
33593;SDS011;19920;52.242;20.940;2023-01-31T00:16:14;15.07;;;6.05;;
33593;SDS011;19920;52.242;20.940;2023-01-31T00:18:40;14.02;;;6.07;;
33593;SDS011;19920;52.242;20.940;2023-01-31T00:21:08;13.57;;;5.88;;
33593;SDS011;19920;52.242;20.940;2023-01-31T00:23:36;13.23;;;5.87;;
33593;SDS011;19920;52.242;20.940;2023-01-31T00:26:09;11.75;;;6.00;;
33593;SDS011;19920;52.242;20.940;2023-01-31T00:28:37;13.23;;;5.30;;
33593;SDS011;19920;52.242;20.940;2023-01-31T00:31:02;12.77;;;5.68;;
33593;SDS011;19920;52.242;20.940;2023-01-31T00:33:28;12.80;;;6.30;;
33593;SDS011;19920;52.242;20.940;2023-01-31T00:35:54;12.30;;;6.20;;
33593;SDS011;19920;52.242;20.940;2023-01-31T00:38:19;12.35;;;5.88;;
33593;SDS011;19920;52.242;20.940;2023-01-31T00:40:51;11.38;;;5.97;;
33593;SDS011;19920;52.242;20.940;2023-01-31T00:43:17;15.20;;;6.45;;
33593;SDS011;19920;52.242;20.940;2023-01-31T00:45:43;14.23;;;7.05;;
33593;SDS011;19920;52.242;20.940;2023-01-31T00:48:09;13.10;;;6.40;;
33593;SDS011;19920;52.242;20.940;2023-01-31T00:50:34;11.50;;;5.75;;
33593;SDS011;19920;52.242;20.940;2023-01-31T00:53:00;10.95;;;6.13;;
33593;SDS011;19920;52.242;20.940;2023-01-31T00:55:26;12.50;;;6.20;;
33593;SDS011;19920;52.242;20.940;2023-01-31T00:57:52;12.63;;;5.95;;
33593;SDS011;19920;52.242;20.940;2023-01-31T01:00:17;12.93;;;6.07;;
33593;SDS011;19920;52.242;20.940;2023-01-31T01:02:43;17.38;;;6.30;;
33593;SDS011;19920;52.242;20.940;2023-01-31T01:05:09;12.50;;;5.93;;
33593;SDS011;19920;52.242;20.940;2023-01-31T01:07:35;13.82;;;6.20;;
33593;SDS011;19920;52.242;20.940;2023-01-31T01:10:00;15.18;;;5.93;;
33593;SDS011;19920;52.242;20.940;2023-01-31T01:12:26;11.35;;;6.00;;
33593;SDS011;19920;52.242;20.940;2023-01-31T01:14:52;11.32;;;5.18;;
33593;SDS011;19920;52.242;20.940;2023-01-31T01:17:17;13.80;;;6.28;;
33593;SDS011;19920;52.242;20.940;2023-01-31T01:19:43;12.35;;;7.03;;
33593;SDS011;19920;52.242;20.940;2023-01-31T01:22:08;11.85;;;5.57;;
33593;SDS011;19920;52.242;20.940;2023-01-31T01:24:39;14.85;;;6.28;;
33593;SDS011;19920;52.242;20.940;2023-01-31T01:27:09;12.55;;;6.03;;
33593;SDS011;19920;52.242;20.940;2023-01-31T01:29:35;16.23;;;6.15;;
33593;SDS011;19920;52.242;20.940;2023-01-31T01:32:01;12.25;;;5.50;;
33593;SDS011;19920;52.242;20.940;2023-01-31T01:34:27;14.77;;;5.70;;
33593;SDS011;19920;52.242;20.940;2023-01-31T01:36:53;18.27;;;5.90;;
33593;SDS011;19920;52.242;20.940;2023-01-31T01:39:19;16.33;;;5.88;;
33593;SDS011;19920;52.242;20.940;2023-01-31T01:41:44;12.27;;;5.63;;
33593;SDS011;19920;52.242;20.940;2023-01-31T01:47:14;12.57;;;5.65;;
33593;SDS011;19920;52.242;20.940;2023-01-31T01:49:41;13.70;;;5.45;;
33593;SDS011;19920;52.242;20.940;2023-01-31T01:52:08;12.88;;;6.07;;
33593;SDS011;19920;52.242;20.940;2023-01-31T01:54:38;16.48;;;6.60;;
33593;SDS011;19920;52.242;20.940;2023-01-31T01:57:11;10.77;;;5.45;;
33593;SDS011;19920;52.242;20.940;2023-01-31T01:59:44;15.73;;;6.28;;
33593;SDS011;19920;52.242;20.940;2023-01-31T02:02:15;11.32;;;6.22;;
33593;SDS011;19920;52.242;20.940;2023-01-31T02:04:41;13.35;;;5.90;;
33593;SDS011;19920;52.242;20.940;2023-01-31T02:07:10;14.88;;;5.53;;
33593;SDS011;19920;52.242;20.940;2023-01-31T02:12:20;12.77;;;5.43;;
33593;SDS011;19920;52.242;20.940;2023-01-31T02:14:46;11.85;;;5.45;;
33593;SDS011;19920;52.242;20.940;2023-01-31T02:17:13;10.15;;;5.45;;
33593;SDS011;19920;52.242;20.940;2023-01-31T02:25:03;11.15;;;4.70;;
33593;SDS011;19920;52.242;20.940;2023-01-31T02:33:12;10.95;;;4.38;;
33593;SDS011;19920;52.242;20.940;2023-01-31T02:35:51;11.30;;;4.97;;
33593;SDS011;19920;52.242;20.940;2023-01-31T02:38:40;14.20;;;4.70;;
33593;SDS011;19920;52.242;20.940;2023-01-31T02:41:31;15.10;;;4.72;;
33593;SDS011;19920;52.242;20.940;2023-01-31T02:47:05;10.52;;;4.03;;
33593;SDS011;19920;52.242;20.940;2023-01-31T02:50:00;15.73;;;5.10;;
33593;SDS011;19920;52.242;20.940;2023-01-31T02:53:11;13.77;;;4.40;;
33593;SDS011;19920;52.242;20.940;2023-01-31T02:55:52;16.67;;;4.32;;
33593;SDS011;19920;52.242;20.940;2023-01-31T02:58:53;12.73;;;4.25;;
33593;SDS011;19920;52.242;20.940;2023-01-31T03:01:24;12.18;;;4.38;;
33593;SDS011;19920;52.242;20.940;2023-01-31T03:03:58;14.35;;;4.15;;
33593;SDS011;19920;52.242;20.940;2023-01-31T03:11:38;10.10;;;3.83;;
33593;SDS011;19920;52.242;20.940;2023-01-31T03:17:13;15.43;;;3.90;;
33593;SDS011;19920;52.242;20.940;2023-01-31T03:23:08;15.05;;;4.00;;
33593;SDS011;19920;52.242;20.940;2023-01-31T03:25:40;14.10;;;3.70;;
33593;SDS011;19920;52.242;20.940;2023-01-31T03:28:08;11.18;;;3.72;;
33593;SDS011;19920;52.242;20.940;2023-01-31T03:33:26;16.70;;;4.10;;
33593;SDS011;19920;52.242;20.940;2023-01-31T03:35:58;12.10;;;3.33;;
33593;SDS011;19920;52.242;20.940;2023-01-31T03:38:34;12.18;;;3.38;;
33593;SDS011;19920;52.242;20.940;2023-01-31T03:41:08;14.60;;;3.75;;
33593;SDS011;19920;52.242;20.940;2023-01-31T03:46:45;11.40;;;3.03;;
33593;SDS011;19920;52.242;20.940;2023-01-31T03:49:14;17.92;;;3.10;;
33593;SDS011;19920;52.242;20.940;2023-01-31T03:51:43;14.00;;;3.90;;
33593;SDS011;19920;52.242;20.940;2023-01-31T03:54:17;11.52;;;2.85;;
33593;SDS011;19920;52.242;20.940;2023-01-31T03:56:53;15.45;;;2.63;;
33593;SDS011;19920;52.242;20.940;2023-01-31T03:59:47;12.48;;;2.83;;
33593;SDS011;19920;52.242;20.940;2023-01-31T04:02:20;11.85;;;2.70;;
33593;SDS011;19920;52.242;20.940;2023-01-31T04:07:17;15.23;;;2.88;;
33593;SDS011;19920;52.242;20.940;2023-01-31T04:09:43;18.08;;;3.05;;
33593;SDS011;19920;52.242;20.940;2023-01-31T04:12:10;15.75;;;2.90;;
33593;SDS011;19920;52.242;20.940;2023-01-31T04:14:37;11.73;;;2.67;;
33593;SDS011;19920;52.242;20.940;2023-01-31T04:17:03;14.27;;;2.90;;
33593;SDS011;19920;52.242;20.940;2023-01-31T04:19:28;16.30;;;3.22;;
33593;SDS011;19920;52.242;20.940;2023-01-31T04:21:54;15.38;;;2.70;;
33593;SDS011;19920;52.242;20.940;2023-01-31T04:24:20;16.40;;;2.55;;
33593;SDS011;19920;52.242;20.940;2023-01-31T04:26:46;13.60;;;2.72;;
33593;SDS011;19920;52.242;20.940;2023-01-31T04:29:12;17.83;;;2.72;;
33593;SDS011;19920;52.242;20.940;2023-01-31T04:31:37;14.35;;;2.67;;
33593;SDS011;19920;52.242;20.940;2023-01-31T04:34:04;14.27;;;2.35;;
33593;SDS011;19920;52.242;20.940;2023-01-31T04:36:30;16.42;;;2.78;;
33593;SDS011;19920;52.242;20.940;2023-01-31T04:38:55;18.58;;;2.97;;
33593;SDS011;19920;52.242;20.940;2023-01-31T04:41:21;16.90;;;3.05;;
33593;SDS011;19920;52.242;20.940;2023-01-31T04:43:47;14.82;;;2.70;;
33593;SDS011;19920;52.242;20.940;2023-01-31T04:46:12;12.77;;;2.47;;
33593;SDS011;19920;52.242;20.940;2023-01-31T04:48:38;16.60;;;2.90;;
33593;SDS011;19920;52.242;20.940;2023-01-31T04:51:05;18.42;;;2.60;;
33593;SDS011;19920;52.242;20.940;2023-01-31T04:53:31;15.88;;;2.95;;
33593;SDS011;19920;52.242;20.940;2023-01-31T04:55:56;12.68;;;2.45;;
33593;SDS011;19920;52.242;20.940;2023-01-31T04:58:22;16.38;;;2.78;;
33593;SDS011;19920;52.242;20.940;2023-01-31T05:00:48;12.30;;;2.20;;
33593;SDS011;19920;52.242;20.940;2023-01-31T05:03:13;15.48;;;2.63;;
33593;SDS011;19920;52.242;20.940;2023-01-31T05:05:39;13.75;;;2.53;;
33593;SDS011;19920;52.242;20.940;2023-01-31T05:08:05;15.60;;;3.13;;
33593;SDS011;19920;52.242;20.940;2023-01-31T05:10:31;8.13;;;1.92;;
33593;SDS011;19920;52.242;20.940;2023-01-31T05:12:59;12.00;;;2.13;;
33593;SDS011;19920;52.242;20.940;2023-01-31T05:15:24;15.95;;;2.45;;
33593;SDS011;19920;52.242;20.940;2023-01-31T05:17:53;18.85;;;2.92;;
33593;SDS011;19920;52.242;20.940;2023-01-31T05:20:32;15.52;;;2.13;;
33593;SDS011;19920;52.242;20.940;2023-01-31T05:23:02;18.48;;;2.47;;
33593;SDS011;19920;52.242;20.940;2023-01-31T05:25:28;18.98;;;2.47;;
33593;SDS011;19920;52.242;20.940;2023-01-31T05:27:54;14.65;;;2.17;;
33593;SDS011;19920;52.242;20.940;2023-01-31T05:30:20;14.35;;;2.42;;
33593;SDS011;19920;52.242;20.940;2023-01-31T05:32:48;20.23;;;2.50;;
33593;SDS011;19920;52.242;20.940;2023-01-31T05:35:14;12.15;;;2.50;;
33593;SDS011;19920;52.242;20.940;2023-01-31T05:37:40;13.13;;;2.15;;
33593;SDS011;19920;52.242;20.940;2023-01-31T05:42:37;15.05;;;2.00;;
33593;SDS011;19920;52.242;20.940;2023-01-31T05:45:03;8.65;;;2.35;;
33593;SDS011;19920;52.242;20.940;2023-01-31T05:47:29;14.98;;;2.13;;
33593;SDS011;19920;52.242;20.940;2023-01-31T05:49:55;12.00;;;2.10;;
33593;SDS011;19920;52.242;20.940;2023-01-31T05:52:20;11.00;;;1.95;;
33593;SDS011;19920;52.242;20.940;2023-01-31T05:54:46;12.07;;;2.45;;
33593;SDS011;19920;52.242;20.940;2023-01-31T05:57:12;14.68;;;2.50;;
33593;SDS011;19920;52.242;20.940;2023-01-31T05:59:39;17.10;;;2.50;;
33593;SDS011;19920;52.242;20.940;2023-01-31T06:02:05;16.27;;;2.58;;
33593;SDS011;19920;52.242;20.940;2023-01-31T06:04:30;13.68;;;2.80;;
33593;SDS011;19920;52.242;20.940;2023-01-31T06:06:56;13.35;;;2.88;;
33593;SDS011;19920;52.242;20.940;2023-01-31T06:09:22;12.52;;;2.20;;
33593;SDS011;19920;52.242;20.940;2023-01-31T06:11:47;20.05;;;2.38;;
33593;SDS011;19920;52.242;20.940;2023-01-31T06:14:13;11.88;;;2.25;;
33593;SDS011;19920;52.242;20.940;2023-01-31T06:16:38;19.17;;;2.55;;
33593;SDS011;19920;52.242;20.940;2023-01-31T06:19:04;13.93;;;2.60;;
33593;SDS011;19920;52.242;20.940;2023-01-31T06:21:30;14.15;;;2.60;;
33593;SDS011;19920;52.242;20.940;2023-01-31T06:23:55;14.18;;;2.15;;
33593;SDS011;19920;52.242;20.940;2023-01-31T06:26:21;13.18;;;2.17;;
33593;SDS011;19920;52.242;20.940;2023-01-31T06:28:47;15.45;;;2.50;;
33593;SDS011;19920;52.242;20.940;2023-01-31T06:31:13;12.25;;;2.47;;
33593;SDS011;19920;52.242;20.940;2023-01-31T06:33:39;10.68;;;2.10;;
33593;SDS011;19920;52.242;20.940;2023-01-31T06:36:05;11.32;;;2.30;;
33593;SDS011;19920;52.242;20.940;2023-01-31T06:38:31;9.02;;;2.20;;
33593;SDS011;19920;52.242;20.940;2023-01-31T06:40:57;13.70;;;2.47;;
33593;SDS011;19920;52.242;20.940;2023-01-31T06:43:22;12.32;;;2.00;;
33593;SDS011;19920;52.242;20.940;2023-01-31T06:45:48;10.82;;;2.60;;
33593;SDS011;19920;52.242;20.940;2023-01-31T06:48:14;13.57;;;2.58;;
33593;SDS011;19920;52.242;20.940;2023-01-31T06:50:40;17.85;;;3.17;;
33593;SDS011;19920;52.242;20.940;2023-01-31T06:53:06;15.48;;;2.70;;
33593;SDS011;19920;52.242;20.940;2023-01-31T06:55:32;11.90;;;2.70;;
33593;SDS011;19920;52.242;20.940;2023-01-31T06:57:58;13.35;;;2.60;;
33593;SDS011;19920;52.242;20.940;2023-01-31T07:00:23;12.85;;;2.42;;
33593;SDS011;19920;52.242;20.940;2023-01-31T07:02:49;10.90;;;2.67;;
33593;SDS011;19920;52.242;20.940;2023-01-31T07:05:16;13.23;;;2.58;;
33593;SDS011;19920;52.242;20.940;2023-01-31T07:07:42;13.73;;;2.70;;
33593;SDS011;19920;52.242;20.940;2023-01-31T07:10:08;13.15;;;2.80;;
33593;SDS011;19920;52.242;20.940;2023-01-31T07:12:35;19.02;;;3.03;;
33593;SDS011;19920;52.242;20.940;2023-01-31T07:15:00;14.68;;;2.28;;
33593;SDS011;19920;52.242;20.940;2023-01-31T07:17:26;12.30;;;2.78;;
33593;SDS011;19920;52.242;20.940;2023-01-31T07:19:52;10.52;;;1.83;;
33593;SDS011;19920;52.242;20.940;2023-01-31T07:22:18;12.40;;;2.17;;
33593;SDS011;19920;52.242;20.940;2023-01-31T07:24:44;11.35;;;2.30;;
33593;SDS011;19920;52.242;20.940;2023-01-31T07:27:12;18.20;;;2.40;;
33593;SDS011;19920;52.242;20.940;2023-01-31T07:29:38;11.90;;;2.15;;
33593;SDS011;19920;52.242;20.940;2023-01-31T07:32:03;13.90;;;2.22;;
33593;SDS011;19920;52.242;20.940;2023-01-31T07:34:29;11.32;;;2.22;;
33593;SDS011;19920;52.242;20.940;2023-01-31T07:36:55;12.25;;;2.20;;
33593;SDS011;19920;52.242;20.940;2023-01-31T07:39:21;9.02;;;1.77;;
33593;SDS011;19920;52.242;20.940;2023-01-31T07:41:47;14.20;;;2.03;;
33593;SDS011;19920;52.242;20.940;2023-01-31T07:44:14;12.27;;;2.38;;
33593;SDS011;19920;52.242;20.940;2023-01-31T07:46:40;11.43;;;2.33;;
33593;SDS011;19920;52.242;20.940;2023-01-31T07:49:06;13.52;;;1.95;;
33593;SDS011;19920;52.242;20.940;2023-01-31T07:51:34;15.80;;;2.55;;
33593;SDS011;19920;52.242;20.940;2023-01-31T07:54:00;17.48;;;2.67;;
33593;SDS011;19920;52.242;20.940;2023-01-31T07:56:32;16.10;;;2.40;;
33593;SDS011;19920;52.242;20.940;2023-01-31T07:58:58;11.77;;;2.00;;
33593;SDS011;19920;52.242;20.940;2023-01-31T08:01:24;16.00;;;2.35;;
33593;SDS011;19920;52.242;20.940;2023-01-31T08:04:10;11.80;;;3.00;;
33593;SDS011;19920;52.242;20.940;2023-01-31T08:06:38;11.70;;;2.20;;
33593;SDS011;19920;52.242;20.940;2023-01-31T08:09:07;13.73;;;2.33;;
33593;SDS011;19920;52.242;20.940;2023-01-31T08:11:33;16.75;;;2.58;;
33593;SDS011;19920;52.242;20.940;2023-01-31T08:13:59;12.35;;;2.55;;
33593;SDS011;19920;52.242;20.940;2023-01-31T08:16:24;13.68;;;2.42;;
33593;SDS011;19920;52.242;20.940;2023-01-31T08:18:51;10.70;;;2.55;;
33593;SDS011;19920;52.242;20.940;2023-01-31T08:21:17;9.77;;;2.20;;
33593;SDS011;19920;52.242;20.940;2023-01-31T08:23:44;19.40;;;2.80;;
33593;SDS011;19920;52.242;20.940;2023-01-31T08:26:11;14.30;;;2.10;;
33593;SDS011;19920;52.242;20.940;2023-01-31T08:28:38;12.38;;;2.22;;
33593;SDS011;19920;52.242;20.940;2023-01-31T08:31:05;18.23;;;2.78;;
33593;SDS011;19920;52.242;20.940;2023-01-31T08:33:31;10.20;;;2.20;;
33593;SDS011;19920;52.242;20.940;2023-01-31T08:35:56;12.20;;;2.40;;
33593;SDS011;19920;52.242;20.940;2023-01-31T08:38:31;12.90;;;2.20;;
33593;SDS011;19920;52.242;20.940;2023-01-31T08:40:57;12.38;;;2.30;;
33593;SDS011;19920;52.242;20.940;2023-01-31T08:43:23;10.20;;;2.50;;
33593;SDS011;19920;52.242;20.940;2023-01-31T08:45:48;12.15;;;2.58;;
33593;SDS011;19920;52.242;20.940;2023-01-31T08:48:14;12.00;;;2.70;;
33593;SDS011;19920;52.242;20.940;2023-01-31T08:50:40;10.05;;;2.33;;
33593;SDS011;19920;52.242;20.940;2023-01-31T08:53:05;13.05;;;2.45;;
33593;SDS011;19920;52.242;20.940;2023-01-31T08:55:33;12.77;;;2.20;;
33593;SDS011;19920;52.242;20.940;2023-01-31T08:57:59;13.38;;;2.55;;
33593;SDS011;19920;52.242;20.940;2023-01-31T09:00:26;13.35;;;2.50;;
33593;SDS011;19920;52.242;20.940;2023-01-31T09:02:55;11.18;;;2.17;;
33593;SDS011;19920;52.242;20.940;2023-01-31T09:05:22;7.45;;;1.75;;
33593;SDS011;19920;52.242;20.940;2023-01-31T09:07:49;14.30;;;2.38;;
33593;SDS011;19920;52.242;20.940;2023-01-31T09:10:15;9.63;;;2.03;;
33593;SDS011;19920;52.242;20.940;2023-01-31T09:12:41;10.32;;;2.42;;
33593;SDS011;19920;52.242;20.940;2023-01-31T09:15:07;12.43;;;2.20;;
33593;SDS011;19920;52.242;20.940;2023-01-31T09:17:33;6.93;;;1.55;;
33593;SDS011;19920;52.242;20.940;2023-01-31T09:19:59;13.30;;;1.83;;
33593;SDS011;19920;52.242;20.940;2023-01-31T09:22:30;9.55;;;1.85;;
33593;SDS011;19920;52.242;20.940;2023-01-31T09:24:57;9.98;;;1.88;;
33593;SDS011;19920;52.242;20.940;2023-01-31T09:27:23;7.70;;;1.85;;
33593;SDS011;19920;52.242;20.940;2023-01-31T09:29:48;10.93;;;2.42;;
33593;SDS011;19920;52.242;20.940;2023-01-31T09:32:14;13.00;;;2.50;;
33593;SDS011;19920;52.242;20.940;2023-01-31T09:34:39;9.88;;;1.98;;
33593;SDS011;19920;52.242;20.940;2023-01-31T09:37:05;10.18;;;2.60;;
33593;SDS011;19920;52.242;20.940;2023-01-31T09:39:31;10.75;;;2.08;;
33593;SDS011;19920;52.242;20.940;2023-01-31T09:42:41;9.88;;;1.80;;
33593;SDS011;19920;52.242;20.940;2023-01-31T09:44:56;11.50;;;2.10;;
33593;SDS011;19920;52.242;20.940;2023-01-31T09:47:27;7.70;;;1.73;;
33593;SDS011;19920;52.242;20.940;2023-01-31T09:49:59;11.05;;;2.15;;
33593;SDS011;19920;52.242;20.940;2023-01-31T09:52:44;9.95;;;1.77;;
33593;SDS011;19920;52.242;20.940;2023-01-31T09:55:21;11.32;;;1.88;;
33593;SDS011;19920;52.242;20.940;2023-01-31T10:00:55;7.07;;;1.85;;
33593;SDS011;19920;52.242;20.940;2023-01-31T10:06:19;7.28;;;1.75;;
33593;SDS011;19920;52.242;20.940;2023-01-31T10:11:38;11.73;;;2.00;;
33593;SDS011;19920;52.242;20.940;2023-01-31T10:17:01;13.27;;;2.35;;
33593;SDS011;19920;52.242;20.940;2023-01-31T10:19:57;7.57;;;1.73;;
33593;SDS011;19920;52.242;20.940;2023-01-31T10:23:15;7.72;;;1.80;;
33593;SDS011;19920;52.242;20.940;2023-01-31T10:25:42;11.10;;;2.35;;
33593;SDS011;19920;52.242;20.940;2023-01-31T10:28:11;11.15;;;2.00;;
33593;SDS011;19920;52.242;20.940;2023-01-31T10:30:54;9.13;;;1.80;;
33593;SDS011;19920;52.242;20.940;2023-01-31T10:33:51;10.75;;;1.98;;
33593;SDS011;19920;52.242;20.940;2023-01-31T10:36:25;16.67;;;2.42;;
33593;SDS011;19920;52.242;20.940;2023-01-31T10:47:19;8.40;;;1.98;;
33593;SDS011;19920;52.242;20.940;2023-01-31T10:49:49;8.73;;;1.80;;
33593;SDS011;19920;52.242;20.940;2023-01-31T10:52:26;7.00;;;1.40;;
33593;SDS011;19920;52.242;20.940;2023-01-31T10:58:06;11.20;;;2.03;;
33593;SDS011;19920;52.242;20.940;2023-01-31T11:00:38;13.07;;;2.05;;
33593;SDS011;19920;52.242;20.940;2023-01-31T11:03:04;9.57;;;1.90;;
33593;SDS011;19920;52.242;20.940;2023-01-31T11:05:30;6.00;;;1.70;;
33593;SDS011;19920;52.242;20.940;2023-01-31T11:07:56;9.00;;;1.77;;
33593;SDS011;19920;52.242;20.940;2023-01-31T11:10:28;5.03;;;1.30;;
33593;SDS011;19920;52.242;20.940;2023-01-31T11:12:56;10.30;;;2.05;;
33593;SDS011;19920;52.242;20.940;2023-01-31T11:18:03;8.23;;;1.70;;
33593;SDS011;19920;52.242;20.940;2023-01-31T11:20:30;9.43;;;1.70;;
33593;SDS011;19920;52.242;20.940;2023-01-31T11:23:01;7.55;;;1.85;;
33593;SDS011;19920;52.242;20.940;2023-01-31T11:25:29;7.03;;;1.67;;
33593;SDS011;19920;52.242;20.940;2023-01-31T11:27:57;7.60;;;1.50;;
33593;SDS011;19920;52.242;20.940;2023-01-31T11:30:30;7.57;;;2.05;;
33593;SDS011;19920;52.242;20.940;2023-01-31T11:32:58;7.90;;;1.90;;
33593;SDS011;19920;52.242;20.940;2023-01-31T11:35:26;10.73;;;1.80;;
33593;SDS011;19920;52.242;20.940;2023-01-31T11:38:16;13.52;;;1.95;;
33593;SDS011;19920;52.242;20.940;2023-01-31T11:40:46;5.22;;;1.85;;
33593;SDS011;19920;52.242;20.940;2023-01-31T11:45:44;12.50;;;2.13;;
33593;SDS011;19920;52.242;20.940;2023-01-31T11:50:38;4.45;;;1.33;;
33593;SDS011;19920;52.242;20.940;2023-01-31T11:55:44;7.43;;;1.80;;
33593;SDS011;19920;52.242;20.940;2023-01-31T11:58:21;10.05;;;2.22;;
33593;SDS011;19920;52.242;20.940;2023-01-31T12:03:22;6.47;;;1.50;;
33593;SDS011;19920;52.242;20.940;2023-01-31T12:05:49;8.90;;;1.85;;
33593;SDS011;19920;52.242;20.940;2023-01-31T12:08:27;12.82;;;2.35;;
33593;SDS011;19920;52.242;20.940;2023-01-31T12:10:54;11.45;;;1.77;;
33593;SDS011;19920;52.242;20.940;2023-01-31T12:13:21;10.80;;;2.33;;
33593;SDS011;19920;52.242;20.940;2023-01-31T12:15:57;8.57;;;1.85;;
33593;SDS011;19920;52.242;20.940;2023-01-31T12:18:43;9.15;;;2.30;;
33593;SDS011;19920;52.242;20.940;2023-01-31T12:35:11;9.90;;;2.10;;
33593;SDS011;19920;52.242;20.940;2023-01-31T12:37:45;8.52;;;2.38;;
33593;SDS011;19920;52.242;20.940;2023-01-31T12:43:01;11.43;;;2.60;;
33593;SDS011;19920;52.242;20.940;2023-01-31T12:48:31;12.32;;;2.60;;
33593;SDS011;19920;52.242;20.940;2023-01-31T12:51:15;8.80;;;2.40;;
33593;SDS011;19920;52.242;20.940;2023-01-31T12:57:13;9.10;;;2.60;;
33593;SDS011;19920;52.242;20.940;2023-01-31T13:08:24;10.23;;;2.00;;
33593;SDS011;19920;52.242;20.940;2023-01-31T13:11:08;8.63;;;1.88;;
33593;SDS011;19920;52.242;20.940;2023-01-31T13:13:46;7.72;;;1.92;;
33593;SDS011;19920;52.242;20.940;2023-01-31T13:16:38;6.45;;;1.92;;
33593;SDS011;19920;52.242;20.940;2023-01-31T13:22:03;9.02;;;2.60;;
33593;SDS011;19920;52.242;20.940;2023-01-31T13:24:36;5.20;;;1.80;;
33593;SDS011;19920;52.242;20.940;2023-01-31T13:30:06;10.68;;;2.22;;
33593;SDS011;19920;52.242;20.940;2023-01-31T13:32:48;6.63;;;2.25;;
33593;SDS011;19920;52.242;20.940;2023-01-31T13:35:27;10.95;;;2.33;;
33593;SDS011;19920;52.242;20.940;2023-01-31T13:37:59;6.07;;;2.13;;
33593;SDS011;19920;52.242;20.940;2023-01-31T13:40:34;11.73;;;2.30;;
33593;SDS011;19920;52.242;20.940;2023-01-31T13:43:07;7.55;;;2.22;;
33593;SDS011;19920;52.242;20.940;2023-01-31T13:45:43;9.20;;;2.88;;
33593;SDS011;19920;52.242;20.940;2023-01-31T13:53:46;10.82;;;3.15;;
33593;SDS011;19920;52.242;20.940;2023-01-31T13:56:31;12.32;;;3.30;;
33593;SDS011;19920;52.242;20.940;2023-01-31T13:58:59;8.23;;;3.03;;
33593;SDS011;19920;52.242;20.940;2023-01-31T14:01:33;9.45;;;3.13;;
33593;SDS011;19920;52.242;20.940;2023-01-31T14:09:36;8.68;;;3.20;;
33593;SDS011;19920;52.242;20.940;2023-01-31T14:14:52;13.95;;;4.07;;
33593;SDS011;19920;52.242;20.940;2023-01-31T14:27:26;11.48;;;3.45;;
33593;SDS011;19920;52.242;20.940;2023-01-31T14:35:26;10.73;;;3.42;;
33593;SDS011;19920;52.242;20.940;2023-01-31T14:41:02;11.15;;;3.08;;
33593;SDS011;19920;52.242;20.940;2023-01-31T14:43:55;11.43;;;3.72;;
33593;SDS011;19920;52.242;20.940;2023-01-31T14:46:38;10.65;;;3.47;;
33593;SDS011;19920;52.242;20.940;2023-01-31T14:49:27;10.90;;;3.50;;
33593;SDS011;19920;52.242;20.940;2023-01-31T14:57:32;12.68;;;3.50;;
33593;SDS011;19920;52.242;20.940;2023-01-31T15:16:07;10.90;;;3.92;;
33593;SDS011;19920;52.242;20.940;2023-01-31T15:21:31;10.52;;;3.67;;
33593;SDS011;19920;52.242;20.940;2023-01-31T15:24:00;14.20;;;4.38;;
33593;SDS011;19920;52.242;20.940;2023-01-31T15:26:30;12.68;;;3.67;;
33593;SDS011;19920;52.242;20.940;2023-01-31T15:28:59;18.00;;;5.00;;
33593;SDS011;19920;52.242;20.940;2023-01-31T15:31:27;11.32;;;4.00;;
33593;SDS011;19920;52.242;20.940;2023-01-31T15:33:58;13.13;;;3.30;;
33593;SDS011;19920;52.242;20.940;2023-01-31T15:36:36;12.35;;;3.97;;
33593;SDS011;19920;52.242;20.940;2023-01-31T15:39:17;15.20;;;3.90;;
33593;SDS011;19920;52.242;20.940;2023-01-31T15:41:47;12.20;;;2.80;;
33593;SDS011;19920;52.242;20.940;2023-01-31T15:46:46;10.88;;;3.42;;
33593;SDS011;19920;52.242;20.940;2023-01-31T15:49:24;14.88;;;4.13;;
33593;SDS011;19920;52.242;20.940;2023-01-31T15:54:56;15.27;;;4.68;;
33593;SDS011;19920;52.242;20.940;2023-01-31T16:00:24;19.83;;;5.43;;
33593;SDS011;19920;52.242;20.940;2023-01-31T16:02:51;14.65;;;5.63;;
33593;SDS011;19920;52.242;20.940;2023-01-31T16:05:25;22.65;;;6.97;;
33593;SDS011;19920;52.242;20.940;2023-01-31T16:07:59;13.18;;;5.43;;
33593;SDS011;19920;52.242;20.940;2023-01-31T16:10:27;23.00;;;6.10;;
33593;SDS011;19920;52.242;20.940;2023-01-31T16:12:55;14.77;;;5.45;;
33593;SDS011;19920;52.242;20.940;2023-01-31T16:15:23;17.60;;;5.28;;
33593;SDS011;19920;52.242;20.940;2023-01-31T16:17:52;14.50;;;4.45;;
33593;SDS011;19920;52.242;20.940;2023-01-31T16:23:27;14.43;;;5.05;;
33593;SDS011;19920;52.242;20.940;2023-01-31T16:28:23;15.90;;;4.82;;
33593;SDS011;19920;52.242;20.940;2023-01-31T16:30:50;15.32;;;5.55;;
33593;SDS011;19920;52.242;20.940;2023-01-31T16:33:17;13.32;;;5.43;;
33593;SDS011;19920;52.242;20.940;2023-01-31T16:35:46;18.20;;;5.45;;
33593;SDS011;19920;52.242;20.940;2023-01-31T16:38:26;20.48;;;5.55;;
33593;SDS011;19920;52.242;20.940;2023-01-31T16:40:53;16.23;;;5.05;;
33593;SDS011;19920;52.242;20.940;2023-01-31T16:43:24;17.08;;;6.00;;
33593;SDS011;19920;52.242;20.940;2023-01-31T16:46:02;17.92;;;6.22;;
33593;SDS011;19920;52.242;20.940;2023-01-31T16:48:33;17.52;;;6.30;;
33593;SDS011;19920;52.242;20.940;2023-01-31T16:54:16;20.35;;;7.25;;
33593;SDS011;19920;52.242;20.940;2023-01-31T16:56:40;20.17;;;6.88;;
33593;SDS011;19920;52.242;20.940;2023-01-31T16:59:37;21.27;;;6.60;;
33593;SDS011;19920;52.242;20.940;2023-01-31T17:02:03;17.52;;;5.70;;
33593;SDS011;19920;52.242;20.940;2023-01-31T17:08:01;18.55;;;5.55;;
33593;SDS011;19920;52.242;20.940;2023-01-31T17:10:29;20.83;;;5.80;;
33593;SDS011;19920;52.242;20.940;2023-01-31T17:12:58;18.45;;;5.88;;
33593;SDS011;19920;52.242;20.940;2023-01-31T17:15:27;13.35;;;5.05;;
33593;SDS011;19920;52.242;20.940;2023-01-31T17:17:54;17.88;;;5.50;;
33593;SDS011;19920;52.242;20.940;2023-01-31T17:20:20;16.17;;;5.10;;
33593;SDS011;19920;52.242;20.940;2023-01-31T17:22:46;13.98;;;4.85;;
33593;SDS011;19920;52.242;20.940;2023-01-31T17:25:13;18.33;;;5.72;;
33593;SDS011;19920;52.242;20.940;2023-01-31T17:27:42;16.08;;;5.43;;
33593;SDS011;19920;52.242;20.940;2023-01-31T17:30:08;15.05;;;4.90;;
33593;SDS011;19920;52.242;20.940;2023-01-31T17:32:34;19.67;;;5.88;;
33593;SDS011;19920;52.242;20.940;2023-01-31T17:35:00;16.88;;;5.68;;
33593;SDS011;19920;52.242;20.940;2023-01-31T17:37:25;19.75;;;6.50;;
33593;SDS011;19920;52.242;20.940;2023-01-31T17:39:51;20.90;;;7.10;;
33593;SDS011;19920;52.242;20.940;2023-01-31T17:42:17;17.10;;;6.53;;
33593;SDS011;19920;52.242;20.940;2023-01-31T17:44:44;20.63;;;6.90;;
33593;SDS011;19920;52.242;20.940;2023-01-31T17:47:10;16.55;;;6.70;;
33593;SDS011;19920;52.242;20.940;2023-01-31T17:49:36;17.67;;;6.75;;
33593;SDS011;19920;52.242;20.940;2023-01-31T17:52:01;21.35;;;7.68;;